sensor_id;sensor_type;location;lat;lon;timestamp;P1;durP1;ratioP1;P2;durP2;ratioP2
29196;SDS011;62796;42.654;23.316;2023-06-22T00:01:08;11.43;;;9.55;;
29196;SDS011;62796;42.654;23.316;2023-06-22T00:03:33;15.45;;;10.05;;
29196;SDS011;62796;42.654;23.316;2023-06-22T00:05:59;14.50;;;9.77;;
29196;SDS011;62796;42.654;23.316;2023-06-22T00:08:24;11.15;;;9.80;;
29196;SDS011;62796;42.654;23.316;2023-06-22T00:10:50;13.90;;;10.23;;
29196;SDS011;62796;42.654;23.316;2023-06-22T00:13:16;15.55;;;9.90;;
29196;SDS011;62796;42.654;23.316;2023-06-22T00:15:42;16.13;;;11.23;;
29196;SDS011;62796;42.654;23.316;2023-06-22T00:18:08;13.40;;;10.77;;
29196;SDS011;62796;42.654;23.316;2023-06-22T00:20:34;13.52;;;11.57;;
29196;SDS011;62796;42.654;23.316;2023-06-22T00:23:04;14.43;;;12.27;;
29196;SDS011;62796;42.654;23.316;2023-06-22T00:25:39;17.02;;;12.88;;
29196;SDS011;62796;42.654;23.316;2023-06-22T00:28:06;19.52;;;14.52;;
29196;SDS011;62796;42.654;23.316;2023-06-22T00:30:32;20.13;;;13.55;;
29196;SDS011;62796;42.654;23.316;2023-06-22T00:32:58;19.02;;;13.18;;
29196;SDS011;62796;42.654;23.316;2023-06-22T00:35:24;19.30;;;13.82;;
29196;SDS011;62796;42.654;23.316;2023-06-22T00:37:54;16.67;;;13.20;;
29196;SDS011;62796;42.654;23.316;2023-06-22T00:40:26;20.08;;;13.05;;
29196;SDS011;62796;42.654;23.316;2023-06-22T00:42:55;15.82;;;12.10;;
29196;SDS011;62796;42.654;23.316;2023-06-22T00:45:21;14.68;;;12.73;;
29196;SDS011;62796;42.654;23.316;2023-06-22T00:47:53;17.60;;;12.40;;
29196;SDS011;62796;42.654;23.316;2023-06-22T00:50:21;15.88;;;12.85;;
29196;SDS011;62796;42.654;23.316;2023-06-22T00:52:51;18.48;;;12.10;;
29196;SDS011;62796;42.654;23.316;2023-06-22T00:55:21;17.50;;;12.93;;
29196;SDS011;62796;42.654;23.316;2023-06-22T00:57:48;14.82;;;11.40;;
29196;SDS011;62796;42.654;23.316;2023-06-22T01:00:14;14.48;;;11.88;;
29196;SDS011;62796;42.654;23.316;2023-06-22T01:02:44;14.98;;;11.57;;
29196;SDS011;62796;42.654;23.316;2023-06-22T01:05:14;18.52;;;11.73;;
29196;SDS011;62796;42.654;23.316;2023-06-22T01:10:25;15.02;;;12.27;;
29196;SDS011;62796;42.654;23.316;2023-06-22T01:13:01;17.08;;;12.50;;
29196;SDS011;62796;42.654;23.316;2023-06-22T01:18:33;22.33;;;12.10;;
29196;SDS011;62796;42.654;23.316;2023-06-22T01:21:02;17.85;;;11.45;;
29196;SDS011;62796;42.654;23.316;2023-06-22T01:23:51;11.00;;;9.90;;
29196;SDS011;62796;42.654;23.316;2023-06-22T01:29:18;13.67;;;9.93;;
29196;SDS011;62796;42.654;23.316;2023-06-22T01:31:46;13.93;;;9.90;;
29196;SDS011;62796;42.654;23.316;2023-06-22T01:34:17;14.30;;;9.82;;
29196;SDS011;62796;42.654;23.316;2023-06-22T01:36:43;11.32;;;9.98;;
29196;SDS011;62796;42.654;23.316;2023-06-22T01:39:10;12.27;;;9.52;;
29196;SDS011;62796;42.654;23.316;2023-06-22T01:41:38;12.48;;;10.20;;
29196;SDS011;62796;42.654;23.316;2023-06-22T01:44:07;12.38;;;9.98;;
29196;SDS011;62796;42.654;23.316;2023-06-22T01:46:34;11.90;;;10.18;;
29196;SDS011;62796;42.654;23.316;2023-06-22T01:49:02;14.55;;;10.93;;
29196;SDS011;62796;42.654;23.316;2023-06-22T01:51:28;12.10;;;10.75;;
29196;SDS011;62796;42.654;23.316;2023-06-22T01:53:55;12.15;;;10.50;;
29196;SDS011;62796;42.654;23.316;2023-06-22T01:56:20;15.00;;;11.35;;
29196;SDS011;62796;42.654;23.316;2023-06-22T01:58:48;13.95;;;11.40;;
29196;SDS011;62796;42.654;23.316;2023-06-22T02:01:21;16.58;;;11.23;;
29196;SDS011;62796;42.654;23.316;2023-06-22T02:04:02;16.30;;;11.07;;
29196;SDS011;62796;42.654;23.316;2023-06-22T02:06:35;12.63;;;11.18;;
29196;SDS011;62796;42.654;23.316;2023-06-22T02:09:06;14.32;;;11.15;;
29196;SDS011;62796;42.654;23.316;2023-06-22T02:11:40;12.73;;;11.07;;
29196;SDS011;62796;42.654;23.316;2023-06-22T02:14:07;14.65;;;11.23;;
29196;SDS011;62796;42.654;23.316;2023-06-22T02:16:33;13.70;;;11.00;;
29196;SDS011;62796;42.654;23.316;2023-06-22T02:19:00;12.93;;;10.77;;
29196;SDS011;62796;42.654;23.316;2023-06-22T02:21:31;13.00;;;10.50;;
29196;SDS011;62796;42.654;23.316;2023-06-22T02:23:57;15.13;;;10.95;;
29196;SDS011;62796;42.654;23.316;2023-06-22T02:26:22;14.88;;;11.18;;
29196;SDS011;62796;42.654;23.316;2023-06-22T02:28:50;16.15;;;11.55;;
29196;SDS011;62796;42.654;23.316;2023-06-22T02:31:15;12.82;;;10.93;;
29196;SDS011;62796;42.654;23.316;2023-06-22T02:33:41;15.63;;;11.27;;
29196;SDS011;62796;42.654;23.316;2023-06-22T02:36:06;14.32;;;11.38;;
29196;SDS011;62796;42.654;23.316;2023-06-22T02:38:34;15.95;;;11.93;;
29196;SDS011;62796;42.654;23.316;2023-06-22T02:41:01;17.77;;;12.20;;
29196;SDS011;62796;42.654;23.316;2023-06-22T02:43:26;15.13;;;11.90;;
29196;SDS011;62796;42.654;23.316;2023-06-22T02:45:52;13.90;;;10.85;;
29196;SDS011;62796;42.654;23.316;2023-06-22T02:48:18;14.57;;;11.25;;
29196;SDS011;62796;42.654;23.316;2023-06-22T02:50:44;19.83;;;11.93;;
29196;SDS011;62796;42.654;23.316;2023-06-22T02:53:09;13.73;;;10.88;;
29196;SDS011;62796;42.654;23.316;2023-06-22T02:55:34;15.68;;;10.60;;
29196;SDS011;62796;42.654;23.316;2023-06-22T02:58:00;16.17;;;11.45;;
29196;SDS011;62796;42.654;23.316;2023-06-22T03:00:30;15.55;;;11.18;;
29196;SDS011;62796;42.654;23.316;2023-06-22T03:02:56;18.00;;;12.70;;
29196;SDS011;62796;42.654;23.316;2023-06-22T03:05:22;19.15;;;12.23;;
29196;SDS011;62796;42.654;23.316;2023-06-22T03:07:47;18.75;;;12.35;;
29196;SDS011;62796;42.654;23.316;2023-06-22T03:10:13;14.98;;;12.18;;
29196;SDS011;62796;42.654;23.316;2023-06-22T03:12:40;16.33;;;11.52;;
29196;SDS011;62796;42.654;23.316;2023-06-22T03:15:07;15.50;;;12.25;;
29196;SDS011;62796;42.654;23.316;2023-06-22T03:17:34;20.20;;;12.48;;
29196;SDS011;62796;42.654;23.316;2023-06-22T03:20:02;24.02;;;13.52;;
29196;SDS011;62796;42.654;23.316;2023-06-22T03:22:40;17.08;;;13.40;;
29196;SDS011;62796;42.654;23.316;2023-06-22T03:25:07;18.75;;;12.90;;
29196;SDS011;62796;42.654;23.316;2023-06-22T03:27:38;19.40;;;13.13;;
29196;SDS011;62796;42.654;23.316;2023-06-22T03:30:05;18.38;;;12.55;;
29196;SDS011;62796;42.654;23.316;2023-06-22T03:32:32;19.83;;;13.75;;
29196;SDS011;62796;42.654;23.316;2023-06-22T03:34:57;16.55;;;12.15;;
29196;SDS011;62796;42.654;23.316;2023-06-22T03:37:24;17.30;;;12.68;;
29196;SDS011;62796;42.654;23.316;2023-06-22T03:39:50;20.67;;;13.07;;
29196;SDS011;62796;42.654;23.316;2023-06-22T03:42:16;23.60;;;14.35;;
29196;SDS011;62796;42.654;23.316;2023-06-22T03:44:41;22.85;;;14.40;;
29196;SDS011;62796;42.654;23.316;2023-06-22T03:47:07;24.30;;;14.55;;
29196;SDS011;62796;42.654;23.316;2023-06-22T03:49:33;22.60;;;14.45;;
29196;SDS011;62796;42.654;23.316;2023-06-22T03:51:59;27.33;;;16.48;;
29196;SDS011;62796;42.654;23.316;2023-06-22T03:54:26;24.02;;;15.27;;
29196;SDS011;62796;42.654;23.316;2023-06-22T03:56:52;27.75;;;14.80;;
29196;SDS011;62796;42.654;23.316;2023-06-22T03:59:18;24.70;;;14.35;;
29196;SDS011;62796;42.654;23.316;2023-06-22T04:01:43;20.92;;;14.15;;
29196;SDS011;62796;42.654;23.316;2023-06-22T04:04:09;21.25;;;14.73;;
29196;SDS011;62796;42.654;23.316;2023-06-22T04:06:35;21.85;;;15.80;;
29196;SDS011;62796;42.654;23.316;2023-06-22T04:09:00;20.10;;;14.93;;
29196;SDS011;62796;42.654;23.316;2023-06-22T04:11:25;24.30;;;15.15;;
29196;SDS011;62796;42.654;23.316;2023-06-22T04:13:51;22.75;;;15.32;;
29196;SDS011;62796;42.654;23.316;2023-06-22T04:16:16;21.45;;;15.82;;
29196;SDS011;62796;42.654;23.316;2023-06-22T04:18:42;20.13;;;15.25;;
29196;SDS011;62796;42.654;23.316;2023-06-22T04:21:07;23.60;;;16.23;;
29196;SDS011;62796;42.654;23.316;2023-06-22T04:23:33;22.92;;;15.93;;
29196;SDS011;62796;42.654;23.316;2023-06-22T04:25:58;19.05;;;16.10;;
29196;SDS011;62796;42.654;23.316;2023-06-22T04:28:24;21.27;;;16.23;;
29196;SDS011;62796;42.654;23.316;2023-06-22T04:30:50;23.17;;;16.27;;
29196;SDS011;62796;42.654;23.316;2023-06-22T04:33:16;20.13;;;16.42;;
29196;SDS011;62796;42.654;23.316;2023-06-22T04:35:42;23.88;;;16.73;;
29196;SDS011;62796;42.654;23.316;2023-06-22T04:38:11;20.88;;;16.17;;
29196;SDS011;62796;42.654;23.316;2023-06-22T04:40:38;20.52;;;15.70;;
29196;SDS011;62796;42.654;23.316;2023-06-22T04:43:04;22.23;;;16.17;;
29196;SDS011;62796;42.654;23.316;2023-06-22T04:45:31;18.67;;;15.48;;
29196;SDS011;62796;42.654;23.316;2023-06-22T04:47:56;22.17;;;16.38;;
29196;SDS011;62796;42.654;23.316;2023-06-22T04:50:22;24.33;;;16.42;;
29196;SDS011;62796;42.654;23.316;2023-06-22T04:52:48;21.48;;;14.48;;
29196;SDS011;62796;42.654;23.316;2023-06-22T04:55:14;25.38;;;17.20;;
29196;SDS011;62796;42.654;23.316;2023-06-22T04:57:46;32.03;;;17.73;;
29196;SDS011;62796;42.654;23.316;2023-06-22T05:00:16;25.08;;;16.73;;
29196;SDS011;62796;42.654;23.316;2023-06-22T05:02:44;26.42;;;15.88;;
29196;SDS011;62796;42.654;23.316;2023-06-22T05:05:11;28.77;;;16.70;;
29196;SDS011;62796;42.654;23.316;2023-06-22T05:07:44;27.42;;;16.00;;
29196;SDS011;62796;42.654;23.316;2023-06-22T05:10:13;28.92;;;16.77;;
29196;SDS011;62796;42.654;23.316;2023-06-22T05:12:40;23.60;;;15.40;;
29196;SDS011;62796;42.654;23.316;2023-06-22T05:15:07;22.05;;;15.95;;
29196;SDS011;62796;42.654;23.316;2023-06-22T05:17:33;24.20;;;16.88;;
29196;SDS011;62796;42.654;23.316;2023-06-22T05:19:58;23.27;;;17.58;;
29196;SDS011;62796;42.654;23.316;2023-06-22T05:22:24;31.20;;;17.13;;
29196;SDS011;62796;42.654;23.316;2023-06-22T05:24:49;26.95;;;18.00;;
29196;SDS011;62796;42.654;23.316;2023-06-22T05:27:15;28.88;;;17.35;;
29196;SDS011;62796;42.654;23.316;2023-06-22T05:29:40;25.60;;;17.65;;
29196;SDS011;62796;42.654;23.316;2023-06-22T05:32:07;25.52;;;16.73;;
29196;SDS011;62796;42.654;23.316;2023-06-22T05:34:33;21.48;;;17.05;;
29196;SDS011;62796;42.654;23.316;2023-06-22T05:36:59;28.42;;;17.05;;
29196;SDS011;62796;42.654;23.316;2023-06-22T05:39:24;27.63;;;15.98;;
29196;SDS011;62796;42.654;23.316;2023-06-22T05:41:51;27.58;;;16.58;;
29196;SDS011;62796;42.654;23.316;2023-06-22T05:44:17;28.58;;;15.80;;
29196;SDS011;62796;42.654;23.316;2023-06-22T05:46:43;24.92;;;16.67;;
29196;SDS011;62796;42.654;23.316;2023-06-22T05:49:09;24.70;;;15.65;;
29196;SDS011;62796;42.654;23.316;2023-06-22T05:51:36;32.17;;;15.88;;
29196;SDS011;62796;42.654;23.316;2023-06-22T05:54:01;24.77;;;15.18;;
29196;SDS011;62796;42.654;23.316;2023-06-22T05:56:27;24.10;;;15.10;;
29196;SDS011;62796;42.654;23.316;2023-06-22T05:58:52;21.35;;;15.43;;
29196;SDS011;62796;42.654;23.316;2023-06-22T06:01:18;21.52;;;15.10;;
29196;SDS011;62796;42.654;23.316;2023-06-22T06:03:43;24.27;;;16.02;;
29196;SDS011;62796;42.654;23.316;2023-06-22T06:06:09;18.20;;;15.00;;
29196;SDS011;62796;42.654;23.316;2023-06-22T06:08:36;20.40;;;15.90;;
29196;SDS011;62796;42.654;23.316;2023-06-22T06:11:02;20.88;;;15.00;;
29196;SDS011;62796;42.654;23.316;2023-06-22T06:13:28;19.15;;;15.52;;
29196;SDS011;62796;42.654;23.316;2023-06-22T06:15:53;20.73;;;14.45;;
29196;SDS011;62796;42.654;23.316;2023-06-22T06:18:21;24.20;;;14.65;;
29196;SDS011;62796;42.654;23.316;2023-06-22T06:20:47;22.63;;;14.57;;
29196;SDS011;62796;42.654;23.316;2023-06-22T06:23:12;23.90;;;14.88;;
29196;SDS011;62796;42.654;23.316;2023-06-22T06:25:38;30.50;;;15.85;;
29196;SDS011;62796;42.654;23.316;2023-06-22T06:28:03;26.27;;;14.13;;
29196;SDS011;62796;42.654;23.316;2023-06-22T06:30:29;18.52;;;13.55;;
29196;SDS011;62796;42.654;23.316;2023-06-22T06:32:55;18.13;;;13.75;;
29196;SDS011;62796;42.654;23.316;2023-06-22T06:35:20;17.33;;;13.73;;
29196;SDS011;62796;42.654;23.316;2023-06-22T06:37:46;21.33;;;13.38;;
29196;SDS011;62796;42.654;23.316;2023-06-22T06:40:14;24.13;;;14.02;;
29196;SDS011;62796;42.654;23.316;2023-06-22T06:42:41;22.88;;;14.10;;
29196;SDS011;62796;42.654;23.316;2023-06-22T06:45:09;19.17;;;13.68;;
29196;SDS011;62796;42.654;23.316;2023-06-22T06:47:38;19.33;;;14.48;;
29196;SDS011;62796;42.654;23.316;2023-06-22T06:50:04;21.02;;;14.25;;
29196;SDS011;62796;42.654;23.316;2023-06-22T06:52:31;18.83;;;13.93;;
29196;SDS011;62796;42.654;23.316;2023-06-22T06:54:56;23.63;;;14.90;;
29196;SDS011;62796;42.654;23.316;2023-06-22T06:57:22;21.40;;;14.70;;
29196;SDS011;62796;42.654;23.316;2023-06-22T06:59:48;22.00;;;14.75;;
29196;SDS011;62796;42.654;23.316;2023-06-22T07:02:14;20.73;;;18.55;;
29196;SDS011;62796;42.654;23.316;2023-06-22T07:04:40;21.88;;;16.95;;
29196;SDS011;62796;42.654;23.316;2023-06-22T07:07:05;17.83;;;13.27;;
29196;SDS011;62796;42.654;23.316;2023-06-22T07:09:31;18.58;;;13.15;;
29196;SDS011;62796;42.654;23.316;2023-06-22T07:11:56;16.20;;;13.13;;
29196;SDS011;62796;42.654;23.316;2023-06-22T07:14:21;21.27;;;14.30;;
29196;SDS011;62796;42.654;23.316;2023-06-22T07:16:47;20.65;;;14.25;;
29196;SDS011;62796;42.654;23.316;2023-06-22T07:19:12;18.90;;;14.52;;
29196;SDS011;62796;42.654;23.316;2023-06-22T07:21:38;27.90;;;14.45;;
29196;SDS011;62796;42.654;23.316;2023-06-22T07:24:04;17.27;;;12.43;;
29196;SDS011;62796;42.654;23.316;2023-06-22T07:26:31;17.60;;;12.77;;
29196;SDS011;62796;42.654;23.316;2023-06-22T07:28:56;20.90;;;13.38;;
29196;SDS011;62796;42.654;23.316;2023-06-22T07:31:23;20.65;;;12.68;;
29196;SDS011;62796;42.654;23.316;2023-06-22T07:33:49;13.77;;;12.07;;
29196;SDS011;62796;42.654;23.316;2023-06-22T07:36:16;24.23;;;13.25;;
29196;SDS011;62796;42.654;23.316;2023-06-22T07:38:42;22.25;;;14.10;;
29196;SDS011;62796;42.654;23.316;2023-06-22T07:41:07;15.52;;;12.85;;
29196;SDS011;62796;42.654;23.316;2023-06-22T07:43:33;19.48;;;13.77;;
29196;SDS011;62796;42.654;23.316;2023-06-22T07:46:01;21.08;;;14.75;;
29196;SDS011;62796;42.654;23.316;2023-06-22T07:48:28;22.15;;;13.93;;
29196;SDS011;62796;42.654;23.316;2023-06-22T07:50:53;20.58;;;14.40;;
29196;SDS011;62796;42.654;23.316;2023-06-22T07:53:19;27.15;;;14.50;;
29196;SDS011;62796;42.654;23.316;2023-06-22T07:55:45;26.02;;;14.93;;
29196;SDS011;62796;42.654;23.316;2023-06-22T07:58:10;18.90;;;14.60;;
29196;SDS011;62796;42.654;23.316;2023-06-22T08:00:36;19.27;;;13.43;;
29196;SDS011;62796;42.654;23.316;2023-06-22T08:03:02;23.33;;;13.95;;
29196;SDS011;62796;42.654;23.316;2023-06-22T08:05:30;21.35;;;14.93;;
29196;SDS011;62796;42.654;23.316;2023-06-22T08:07:55;20.15;;;13.80;;
29196;SDS011;62796;42.654;23.316;2023-06-22T08:10:21;24.35;;;13.13;;
29196;SDS011;62796;42.654;23.316;2023-06-22T08:12:46;19.35;;;13.55;;
29196;SDS011;62796;42.654;23.316;2023-06-22T08:15:12;22.60;;;13.68;;
29196;SDS011;62796;42.654;23.316;2023-06-22T08:17:37;25.05;;;13.70;;
29196;SDS011;62796;42.654;23.316;2023-06-22T08:20:04;20.42;;;14.35;;
29196;SDS011;62796;42.654;23.316;2023-06-22T08:22:37;22.73;;;14.07;;
29196;SDS011;62796;42.654;23.316;2023-06-22T08:25:03;25.92;;;14.02;;
29196;SDS011;62796;42.654;23.316;2023-06-22T08:27:29;17.80;;;13.23;;
29196;SDS011;62796;42.654;23.316;2023-06-22T08:29:57;19.52;;;13.68;;
29196;SDS011;62796;42.654;23.316;2023-06-22T08:32:24;15.63;;;12.73;;
29196;SDS011;62796;42.654;23.316;2023-06-22T08:34:53;21.77;;;12.32;;
29196;SDS011;62796;42.654;23.316;2023-06-22T08:37:19;17.60;;;12.13;;
29196;SDS011;62796;42.654;23.316;2023-06-22T08:39:45;19.00;;;12.27;;
29196;SDS011;62796;42.654;23.316;2023-06-22T08:42:12;14.27;;;12.13;;
29196;SDS011;62796;42.654;23.316;2023-06-22T08:44:37;15.70;;;11.55;;
29196;SDS011;62796;42.654;23.316;2023-06-22T08:47:02;15.07;;;13.07;;
29196;SDS011;62796;42.654;23.316;2023-06-22T08:49:28;17.90;;;12.80;;
29196;SDS011;62796;42.654;23.316;2023-06-22T08:51:54;17.05;;;13.02;;
29196;SDS011;62796;42.654;23.316;2023-06-22T08:54:21;15.07;;;12.15;;
29196;SDS011;62796;42.654;23.316;2023-06-22T08:56:46;14.07;;;12.60;;
29196;SDS011;62796;42.654;23.316;2023-06-22T08:59:11;17.40;;;12.30;;
29196;SDS011;62796;42.654;23.316;2023-06-22T09:01:37;20.20;;;12.63;;
29196;SDS011;62796;42.654;23.316;2023-06-22T09:04:02;14.75;;;11.38;;
29196;SDS011;62796;42.654;23.316;2023-06-22T09:06:31;12.05;;;10.75;;
29196;SDS011;62796;42.654;23.316;2023-06-22T09:08:56;14.18;;;10.70;;
29196;SDS011;62796;42.654;23.316;2023-06-22T09:11:24;13.93;;;9.93;;
29196;SDS011;62796;42.654;23.316;2023-06-22T09:13:50;10.35;;;9.35;;
29196;SDS011;62796;42.654;23.316;2023-06-22T09:16:17;13.57;;;10.15;;
29196;SDS011;62796;42.654;23.316;2023-06-22T09:18:42;11.68;;;9.48;;
29196;SDS011;62796;42.654;23.316;2023-06-22T09:21:08;10.27;;;9.18;;
29196;SDS011;62796;42.654;23.316;2023-06-22T09:23:33;18.38;;;9.75;;
29196;SDS011;62796;42.654;23.316;2023-06-22T09:25:59;10.02;;;8.43;;
29196;SDS011;62796;42.654;23.316;2023-06-22T09:28:24;10.38;;;8.73;;
29196;SDS011;62796;42.654;23.316;2023-06-22T09:30:50;11.90;;;9.35;;
29196;SDS011;62796;42.654;23.316;2023-06-22T09:33:16;12.63;;;9.23;;
29196;SDS011;62796;42.654;23.316;2023-06-22T09:35:41;13.65;;;10.00;;
29196;SDS011;62796;42.654;23.316;2023-06-22T09:38:06;12.05;;;9.55;;
29196;SDS011;62796;42.654;23.316;2023-06-22T09:40:32;11.48;;;10.20;;
29196;SDS011;62796;42.654;23.316;2023-06-22T09:43:04;12.73;;;9.80;;
29196;SDS011;62796;42.654;23.316;2023-06-22T09:45:30;15.95;;;9.90;;
29196;SDS011;62796;42.654;23.316;2023-06-22T09:47:55;11.20;;;9.55;;
29196;SDS011;62796;42.654;23.316;2023-06-22T09:50:21;11.02;;;9.68;;
29196;SDS011;62796;42.654;23.316;2023-06-22T09:52:46;11.80;;;9.68;;
29196;SDS011;62796;42.654;23.316;2023-06-22T09:55:15;21.15;;;10.52;;
29196;SDS011;62796;42.654;23.316;2023-06-22T09:57:41;12.77;;;10.10;;
29196;SDS011;62796;42.654;23.316;2023-06-22T10:00:06;10.43;;;9.43;;
29196;SDS011;62796;42.654;23.316;2023-06-22T10:02:38;11.63;;;9.85;;
29196;SDS011;62796;42.654;23.316;2023-06-22T10:05:04;14.63;;;10.20;;
29196;SDS011;62796;42.654;23.316;2023-06-22T10:07:29;11.60;;;9.88;;
29196;SDS011;62796;42.654;23.316;2023-06-22T10:09:55;16.60;;;9.45;;
29196;SDS011;62796;42.654;23.316;2023-06-22T10:12:20;14.60;;;8.98;;
29196;SDS011;62796;42.654;23.316;2023-06-22T10:14:45;16.30;;;10.55;;
29196;SDS011;62796;42.654;23.316;2023-06-22T10:17:11;12.07;;;9.80;;
29196;SDS011;62796;42.654;23.316;2023-06-22T10:19:36;12.05;;;9.95;;
29196;SDS011;62796;42.654;23.316;2023-06-22T10:22:03;12.35;;;9.25;;
29196;SDS011;62796;42.654;23.316;2023-06-22T10:24:29;13.40;;;9.88;;
29196;SDS011;62796;42.654;23.316;2023-06-22T10:26:55;15.00;;;9.52;;
29196;SDS011;62796;42.654;23.316;2023-06-22T10:29:20;12.63;;;9.05;;
29196;SDS011;62796;42.654;23.316;2023-06-22T10:31:45;11.40;;;8.75;;
29196;SDS011;62796;42.654;23.316;2023-06-22T10:34:11;10.07;;;8.98;;
29196;SDS011;62796;42.654;23.316;2023-06-22T10:36:36;10.40;;;9.10;;
29196;SDS011;62796;42.654;23.316;2023-06-22T10:39:02;10.60;;;9.07;;
29196;SDS011;62796;42.654;23.316;2023-06-22T10:41:28;10.40;;;9.35;;
29196;SDS011;62796;42.654;23.316;2023-06-22T10:43:55;11.68;;;9.00;;
29196;SDS011;62796;42.654;23.316;2023-06-22T10:46:20;12.70;;;8.98;;
29196;SDS011;62796;42.654;23.316;2023-06-22T10:48:46;11.30;;;9.93;;
29196;SDS011;62796;42.654;23.316;2023-06-22T10:51:11;10.80;;;9.45;;
29196;SDS011;62796;42.654;23.316;2023-06-22T10:53:37;10.73;;;9.70;;
29196;SDS011;62796;42.654;23.316;2023-06-22T10:56:02;11.65;;;9.98;;
29196;SDS011;62796;42.654;23.316;2023-06-22T10:58:27;9.95;;;8.95;;
29196;SDS011;62796;42.654;23.316;2023-06-22T11:00:53;10.85;;;9.77;;
29196;SDS011;62796;42.654;23.316;2023-06-22T11:03:18;9.50;;;8.70;;
29196;SDS011;62796;42.654;23.316;2023-06-22T11:05:44;10.05;;;8.98;;
29196;SDS011;62796;42.654;23.316;2023-06-22T11:08:09;10.13;;;9.07;;
29196;SDS011;62796;42.654;23.316;2023-06-22T11:10:35;11.13;;;9.73;;
29196;SDS011;62796;42.654;23.316;2023-06-22T11:13:00;10.40;;;9.30;;
29196;SDS011;62796;42.654;23.316;2023-06-22T11:15:27;10.63;;;9.52;;
29196;SDS011;62796;42.654;23.316;2023-06-22T11:17:53;9.95;;;9.05;;
29196;SDS011;62796;42.654;23.316;2023-06-22T11:20:18;11.70;;;9.40;;
29196;SDS011;62796;42.654;23.316;2023-06-22T11:22:44;10.25;;;9.27;;
29196;SDS011;62796;42.654;23.316;2023-06-22T11:25:10;13.75;;;9.23;;
29196;SDS011;62796;42.654;23.316;2023-06-22T11:27:37;13.85;;;9.85;;
29196;SDS011;62796;42.654;23.316;2023-06-22T11:30:02;10.68;;;9.57;;
29196;SDS011;62796;42.654;23.316;2023-06-22T11:32:28;10.30;;;8.88;;
29196;SDS011;62796;42.654;23.316;2023-06-22T11:34:54;10.35;;;9.25;;
29196;SDS011;62796;42.654;23.316;2023-06-22T11:37:20;14.65;;;9.40;;
29196;SDS011;62796;42.654;23.316;2023-06-22T11:39:45;11.93;;;9.50;;
29196;SDS011;62796;42.654;23.316;2023-06-22T11:42:11;10.20;;;9.30;;
29196;SDS011;62796;42.654;23.316;2023-06-22T11:44:36;9.93;;;9.00;;
29196;SDS011;62796;42.654;23.316;2023-06-22T11:47:02;11.95;;;10.05;;
29196;SDS011;62796;42.654;23.316;2023-06-22T11:49:30;17.10;;;10.02;;
29196;SDS011;62796;42.654;23.316;2023-06-22T11:51:56;13.10;;;9.95;;
29196;SDS011;62796;42.654;23.316;2023-06-22T11:54:21;16.23;;;9.82;;
29196;SDS011;62796;42.654;23.316;2023-06-22T11:56:47;11.55;;;9.20;;
29196;SDS011;62796;42.654;23.316;2023-06-22T11:59:12;10.43;;;9.32;;
29196;SDS011;62796;42.654;23.316;2023-06-22T12:01:38;15.85;;;10.30;;
29196;SDS011;62796;42.654;23.316;2023-06-22T12:04:04;14.02;;;9.95;;
29196;SDS011;62796;42.654;23.316;2023-06-22T12:06:31;13.23;;;10.25;;
29196;SDS011;62796;42.654;23.316;2023-06-22T12:08:57;14.68;;;10.77;;
29196;SDS011;62796;42.654;23.316;2023-06-22T12:11:22;17.90;;;11.65;;
29196;SDS011;62796;42.654;23.316;2023-06-22T12:13:47;27.02;;;11.55;;
29196;SDS011;62796;42.654;23.316;2023-06-22T12:16:13;15.70;;;10.20;;
29196;SDS011;62796;42.654;23.316;2023-06-22T12:18:38;16.25;;;10.40;;
29196;SDS011;62796;42.654;23.316;2023-06-22T12:21:04;19.90;;;10.45;;
29196;SDS011;62796;42.654;23.316;2023-06-22T12:23:29;23.35;;;11.23;;
29196;SDS011;62796;42.654;23.316;2023-06-22T12:25:54;12.73;;;11.18;;
29196;SDS011;62796;42.654;23.316;2023-06-22T12:28:20;22.08;;;12.10;;
29196;SDS011;62796;42.654;23.316;2023-06-22T12:30:45;12.32;;;10.80;;
29196;SDS011;62796;42.654;23.316;2023-06-22T12:33:11;16.25;;;11.23;;
29196;SDS011;62796;42.654;23.316;2023-06-22T12:35:36;28.70;;;12.13;;
29196;SDS011;62796;42.654;23.316;2023-06-22T12:38:02;31.92;;;12.38;;
29196;SDS011;62796;42.654;23.316;2023-06-22T12:40:28;21.95;;;10.82;;
29196;SDS011;62796;42.654;23.316;2023-06-22T12:42:53;14.80;;;10.40;;
29196;SDS011;62796;42.654;23.316;2023-06-22T12:45:19;16.50;;;10.18;;
29196;SDS011;62796;42.654;23.316;2023-06-22T12:47:46;19.17;;;9.60;;
29196;SDS011;62796;42.654;23.316;2023-06-22T12:50:12;17.00;;;10.25;;
29196;SDS011;62796;42.654;23.316;2023-06-22T12:52:37;15.05;;;10.02;;
29196;SDS011;62796;42.654;23.316;2023-06-22T12:55:06;13.38;;;10.18;;
29196;SDS011;62796;42.654;23.316;2023-06-22T12:57:32;15.02;;;10.02;;
29196;SDS011;62796;42.654;23.316;2023-06-22T12:59:57;13.20;;;10.00;;
29196;SDS011;62796;42.654;23.316;2023-06-22T13:02:25;15.73;;;10.32;;
29196;SDS011;62796;42.654;23.316;2023-06-22T13:04:50;14.88;;;10.45;;
29196;SDS011;62796;42.654;23.316;2023-06-22T13:07:16;11.68;;;9.43;;
29196;SDS011;62796;42.654;23.316;2023-06-22T13:09:41;12.27;;;10.00;;
29196;SDS011;62796;42.654;23.316;2023-06-22T13:12:07;20.38;;;11.77;;
29196;SDS011;62796;42.654;23.316;2023-06-22T13:14:32;16.50;;;12.05;;
29196;SDS011;62796;42.654;23.316;2023-06-22T13:16:58;23.75;;;13.38;;
29196;SDS011;62796;42.654;23.316;2023-06-22T13:19:23;15.50;;;11.98;;
29196;SDS011;62796;42.654;23.316;2023-06-22T13:21:49;21.88;;;13.05;;
29196;SDS011;62796;42.654;23.316;2023-06-22T13:24:15;13.75;;;11.07;;
29196;SDS011;62796;42.654;23.316;2023-06-22T13:26:41;15.02;;;11.52;;
29196;SDS011;62796;42.654;23.316;2023-06-22T13:29:06;13.60;;;11.43;;
29196;SDS011;62796;42.654;23.316;2023-06-22T13:31:32;16.05;;;11.40;;
29196;SDS011;62796;42.654;23.316;2023-06-22T13:33:57;16.17;;;11.30;;
29196;SDS011;62796;42.654;23.316;2023-06-22T13:36:23;15.20;;;10.80;;
29196;SDS011;62796;42.654;23.316;2023-06-22T13:38:49;12.98;;;11.48;;
29196;SDS011;62796;42.654;23.316;2023-06-22T13:41:14;16.60;;;11.75;;
29196;SDS011;62796;42.654;23.316;2023-06-22T13:43:39;14.93;;;11.50;;
29196;SDS011;62796;42.654;23.316;2023-06-22T13:46:05;20.42;;;12.27;;
29196;SDS011;62796;42.654;23.316;2023-06-22T13:48:30;13.95;;;11.25;;
29196;SDS011;62796;42.654;23.316;2023-06-22T13:50:57;12.88;;;11.48;;
29196;SDS011;62796;42.654;23.316;2023-06-22T13:53:24;15.32;;;11.60;;
29196;SDS011;62796;42.654;23.316;2023-06-22T13:55:50;17.67;;;11.85;;
29196;SDS011;62796;42.654;23.316;2023-06-22T13:58:15;16.33;;;12.95;;
29196;SDS011;62796;42.654;23.316;2023-06-22T14:00:40;17.67;;;13.30;;
29196;SDS011;62796;42.654;23.316;2023-06-22T14:03:06;28.17;;;16.05;;
29196;SDS011;62796;42.654;23.316;2023-06-22T14:05:31;25.38;;;13.77;;
29196;SDS011;62796;42.654;23.316;2023-06-22T14:07:57;23.67;;;14.68;;
29196;SDS011;62796;42.654;23.316;2023-06-22T14:10:22;24.13;;;13.45;;
29196;SDS011;62796;42.654;23.316;2023-06-22T14:12:47;19.48;;;11.98;;
29196;SDS011;62796;42.654;23.316;2023-06-22T14:15:13;22.77;;;11.63;;